Peterson, Alabama
Current Conditions -  °F | °C
As of 11:53 PM on Thursday 27 Nov 2014 (Local Time) from KTCL Reporting Station
Clear Clear  
Wind Chill: 32°   Ceiling: Unl
Heat Index: 32°   Visibility: 10mi
Dew Point: 27°   Wind: 0mph
Humidity: 82%   Direction: NA
Pressure: 30.46"   Gusts: NA
Location:  33.23°N, 87.42°W
Report Text: KTCL 280553Z AUTO 00000KT 10SM CLR 00/M03 A3046 RMK AO2 SLP315 T00001028 10044 21011 400941011 58008
Loading
Personal Weather Stations






























Interactive Weather Map New forecast layout! Learn more

10-Day Weather Forecast

Advertisements
Track Severe Weather on mobile